Latest Coastal Weather Observations for Robe Airport

IDS60701

Issued at 1:31 am CST Sunday 26 April 2015 (issued every 10 minutes, with the page automatically refreshed every 10 minutes)

About coastal observations | Map of coastal stations | Coastal observations for SA | Marine services | Other Formats
Station Details ID: 026105 Name: ROBE AIRFIELD Lat: -37.18 Lon: 139.81 Height: 3.0 m
Data from the previous 72 hours. | See also: Recent months at Robe Airport
Date/Time
CST
Temp

°C
Wind Pressure Rain
since 9am
mm
Weather Cloud Vis
km
Sea
Height
m
Swell
Dir
 
Speed
knots
Gust
knots
hPa Trend Height
m
Period
s
Dir
26/01:30am 10.9 SSE 9 13 1020.5 - 2.2 - - - - - - -
26/01:00am 10.6 SSW 4 5 1020.4 - 2.2 - - - - - - -
26/12:30am 10.2 SSE 4 6 1020.3 - 2.0 - - - - - - -
26/12:00am 10.9 S 9 13 1020.2 - 2.0 - - - - - - -
 
Date/Time
CST
Temp

°C
Wind Pressure Rain
since 9am
mm
Weather Cloud Vis
km
Sea
Height
m
Swell
Dir
 
Speed
knots
Gust
knots
hPa Trend Height
m
Period
s
Dir
25/11:30pm 11.0 SSW 8 13 1020.0 - 2.0 - - - - - - -
25/11:00pm 10.0 S 4 5 1020.2 - 2.0 - - - - - - -
25/10:30pm 11.3 S 9 12 1020.2 - 2.0 - - - - - - -
25/10:00pm 12.1 S 11 14 1020.0 - 2.0 - - - - - - -
25/09:30pm 12.4 S 8 11 1019.8 - 2.0 - - - - - - -
25/09:00pm 12.4 S 10 13 1019.5 - 2.0 - - - - - - -
25/08:30pm 12.4 S 7 11 1019.2 - 2.0 - - - - - - -
25/08:00pm 12.4 S 10 15 1018.9 - 2.0 - - - - - - -
25/07:30pm 12.4 S 10 14 1018.7 - 2.0 - - - - - - -
25/07:00pm 12.5 S 12 17 1018.3 - 2.0 - - - - - - -
25/06:30pm 12.3 S 12 17 1017.9 - 2.0 - - - - - - -
25/06:00pm 12.6 S 14 23 1017.4 - 2.0 - - - - - - -
25/05:30pm 12.8 S 16 23 1016.8 - 2.0 - - - - - - -
25/05:00pm 13.1 S 15 22 1016.3 - 2.0 - - - - - - -
25/04:30pm 13.2 S 17 23 1015.8 - 2.0 - - - - - - -
25/04:00pm 13.1 S 16 23 1015.6 - 2.0 - - - - - - -
25/03:30pm 13.0 S 18 26 1015.1 - 1.6 - - - - - - -
25/03:00pm 13.2 S 19 26 1014.7 - 1.6 - - - - - - -
25/02:30pm 13.9 S 19 29 1014.2 - 1.6 - - - - - - -
25/02:22pm 14.0 S 18 29 1014.1 - 1.6 - - - - - - -
25/02:00pm 14.6 S 17 22 1013.7 - 1.6 - - - - - - -
25/01:43pm 13.8 S 19 29 1013.4 - 1.6 - - - - - - -
25/01:30pm 14.8 S 21 29 1013.2 - 1.6 - - - - - - -
25/01:00pm 14.4 S 20 27 1012.9 - 1.6 - - - - - - -
25/12:30pm 14.6 S 21 29 1012.7 - 1.6 - - - - - - -
25/12:00pm 14.9 S 17 24 1012.4 - 1.6 Recent precip. - - - - - -
25/11:30am 14.7 S 21 29 1012.2 - 1.6 - - - - - - -
25/11:00am 14.1 S 16 26 1011.9 - 0.0 - - - - - - -
25/10:58am 14.1 S 15 23 1011.9 - 0.0 - - - - - - -
25/10:30am 13.7 SSW 9 13 1011.9 - 0.0 - - - - - - -
25/10:00am 13.1 SSW 7 9 1011.4 - 0.0 - - - - - - -
25/09:30am 13.4 S 4 7 1011.1 - 0.0 - - - - - - -
25/09:00am 12.8 SSW 7 10 1011.0 - 9.2 - - - - - - -
25/08:30am 13.1 SW 7 12 1010.7 - 9.2 - - - - - - -
25/08:00am 12.2 SSW 5 7 1010.6 - 9.2 - - - - - - -
25/07:30am 7.6 WNW 1 3 1010.1 - 9.2 - - - - - - -
25/07:00am 4.6 CALM 0 0 1009.8 - 9.2 - - - - - - -
25/06:30am 4.4 CALM 0 0 1009.5 - 9.2 - - - - - - -
25/06:00am 4.5 CALM 0 0 1009.2 - 9.2 Recent precip. - - - - - -
25/05:30am 3.5 CALM 0 0 1009.0 - 8.4 - - - - - - -
25/05:00am 3.3 CALM 0 0 1008.6 - 8.4 - - - - - - -
25/04:30am 3.8 CALM 0 0 1008.3 - 8.4 - - - - - - -
25/04:00am 4.9 SSW 1 1 1007.9 - 8.4 - - - - - - -
25/03:30am 5.6 SSW 4 6 1007.7 - 8.4 - - - - - - -
25/03:00am 6.5 SE 2 4 1007.5 - 8.4 - - - - - - -
25/02:30am 6.7 SE 2 3 1007.5 - 8.4 - - - - - - -
25/02:00am 6.0 SE 2 4 1007.2 - 8.4 - - - - - - -
25/01:30am 6.0 SE 4 7 1006.9 - 8.4 - - - - - - -
25/01:00am 6.4 NE 2 3 1006.7 - 8.4 - - - - - - -
25/12:30am 7.0 NE 1 2 1006.5 - 8.4 - - - - - - -
25/12:00am 7.8 NE 1 3 1006.2 - 8.4 - - - - - - -
 
Date/Time
CST
Temp

°C
Wind Pressure Rain
since 9am
mm
Weather Cloud Vis
km
Sea
Height
m
Swell
Dir
 
Speed
knots
Gust
knots
hPa Trend Height
m
Period
s
Dir
24/11:30pm 8.4 ENE 3 4 1005.9 - 8.4 - - - - - - -
24/11:00pm 9.3 NNE 4 5 1006.0 - 8.4 - - - - - - -
24/10:30pm 9.7 NNE 5 8 1006.1 - 8.4 - - - - - - -
24/10:00pm 9.5 NNE 6 8 1006.0 - 8.4 - - - - - - -
24/09:30pm 8.9 ENE 6 8 1005.8 - 8.4 - - - - - - -
24/09:00pm 8.4 CALM 0 0 1005.6 - 8.4 - - - - - - -
24/08:30pm 10.0 CALM 0 0 1005.7 - 8.4 - - - - - - -
24/08:00pm 10.3 W 2 6 1005.9 - 8.4 - - - - - - -
24/07:30pm 10.5 W 1 2 1005.6 - 8.4 - - - - - - -
24/07:00pm 11.7 W 3 5 1005.6 - 8.4 - - - - - - -
24/06:30pm 11.6 W 3 4 1005.4 - 8.4 - - - - - - -
24/06:00pm 11.9 WNW 4 6 1005.1 - 8.4 - - - - - - -
24/05:30pm 12.3 W 5 6 1004.7 - 8.4 - - - - - - -
24/05:00pm 13.2 WNW 7 13 1004.6 - 8.4 - - - - - - -
24/04:30pm 13.7 W 6 10 1004.3 - 8.4 - - - - - - -
24/04:00pm 13.7 NW 8 13 1004.2 - 8.4 - - - - - - -
24/03:30pm 13.8 NW 5 9 1004.0 - 8.4 - - - - - - -
24/03:00pm 13.0 WNW 5 7 1004.2 - 6.6 - - - - - - -
24/02:30pm 12.8 WNW 7 10 1004.1 - 6.6 - - - - - - -
24/02:00pm 11.9 NW 8 12 1004.3 - 6.6 - - - - - - -
24/01:30pm 12.1 W 7 11 1004.2 - 6.2 - - - - - - -
24/01:00pm 12.6 W 9 13 1004.3 - 5.8 - - - - - - -
24/12:30pm 12.2 W 9 16 1004.5 - 5.6 - - - - - - -
24/12:00pm 12.3 W 12 23 1004.4 - 5.6 Recent precip. - - - - - -
24/11:30am 12.1 WNW 19 37 1004.2 - 4.6 - - - - - - -
24/11:26am 13.0 NNW 19 37 1004.0 - 2.6 - - - - - - -
24/11:24am 14.4 N 17 37 1003.8 - 0.8 - - - - - - -
24/11:00am 17.1 N 15 21 1003.8 - 0.0 - - - - - - -
24/10:30am 16.7 NNW 13 19 1004.2 - 0.0 - - - - - - -
24/10:00am 17.0 NNW 12 16 1004.4 - 0.0 - - - - - - -
24/09:30am 16.4 NNW 10 13 1004.6 - 0.0 - - - - - - -
24/09:00am 16.3 NNW 9 11 1005.4 - 0.0 - - - - - - -
24/08:30am 15.0 N 5 8 1005.5 - 0.0 - - - - - - -
24/08:00am 13.5 N 1 3 1005.6 - 0.0 - - - - - - -
24/07:30am 13.1 N 4 5 1005.7 - 0.0 - - - - - - -
24/07:00am 12.7 N 3 4 1005.8 - 0.0 - - - - - - -
24/06:30am 12.5 N 4 5 1005.9 - 0.0 - - - - - - -
24/06:00am 12.7 N 3 4 1006.2 - 0.0 - - - - - - -
24/05:30am 12.6 W 3 4 1006.4 - 0.0 - - - - - - -
24/05:00am 12.1 CALM 0 0 1006.6 - 0.0 - - - - - - -
24/04:30am 12.6 CALM 0 0 1006.8 - 0.0 - - - - - - -
24/04:00am 13.3 W 3 4 1006.9 - 0.0 - - - - - - -
24/03:30am 13.4 W 3 5 1007.3 - 0.0 - - - - - - -
24/03:00am 13.6 W 3 5 1007.6 - 0.0 - - - - - - -
24/02:30am 13.5 SW 2 4 1008.0 - 0.0 - - - - - - -
24/02:00am 12.6 SW 2 2 1008.5 - 0.0 - - - - - - -
24/01:30am 13.4 SW 1 2 1008.9 - 0.0 - - - - - - -
24/01:00am 13.4 SW 2 3 1009.3 - 0.0 - - - - - - -
24/12:30am 13.1 SW 1 1 1009.5 - 0.0 - - - - - - -
24/12:00am 13.6 SW 2 4 1010.0 - 0.0 - - - - - - -
 
Date/Time
CST
Temp

°C
Wind Pressure Rain
since 9am
mm
Weather Cloud Vis
km
Sea
Height
m
Swell
Dir
 
Speed
knots
Gust
knots
hPa Trend Height
m
Period
s
Dir
23/11:30pm 13.8 SW 3 3 1010.4 - 0.0 - - - - - - -
23/11:00pm 14.2 SW 4 6 1011.0 - 0.0 - - - - - - -
23/10:30pm 14.6 SW 3 4 1011.4 - 0.0 - - - - - - -
23/10:00pm 14.6 SW 3 4 1011.7 - 0.0 - - - - - - -
23/09:30pm 14.5 SW 2 4 1012.0 - 0.0 - - - - - - -
23/09:00pm 14.4 S 2 3 1012.2 - 0.0 - - - - - - -
23/08:30pm 14.5 S 4 5 1012.4 - 0.0 - - - - - - -
23/08:00pm 14.4 SSW 4 5 1012.7 - 0.0 - - - - - - -
23/07:30pm 14.4 S 4 5 1013.0 - 0.0 - - - - - - -
23/07:00pm 14.5 S 3 4 1013.2 - 0.0 - - - - - - -
23/06:30pm 14.5 S 4 5 1013.4 - 0.0 - - - - - - -
23/06:00pm 14.5 S 5 7 1013.2 - 0.0 - - - - - - -
23/05:30pm 14.7 S 6 8 1013.1 - 0.0 - - - - - - -
23/05:00pm 15.3 S 8 10 1012.9 - 0.0 - - - - - - -
23/04:30pm 15.7 S 9 12 1012.7 - 0.0 - - - - - - -
23/04:00pm 16.0 SSE 9 12 1012.9 - 0.0 - - - - - - -
23/03:30pm 15.8 SSE 10 12 1013.4 - 0.0 - - - - - - -
23/03:00pm 15.9 SSE 12 15 1013.7 - 0.0 - - - - - - -
23/02:30pm 16.2 S 8 11 1015.0 - 0.0 - - - - - - -
23/02:00pm 16.2 S 9 12 1015.0 - 0.0 - - - - - - -
23/01:30pm 16.4 S 10 13 1015.3 - 0.0 - - - - - - -
23/01:00pm 16.6 S 8 11 1015.7 - 0.0 - - - - - - -
23/12:30pm 16.6 S 10 13 1016.1 - 0.0 - - - - - - -
23/12:00pm 17.1 S 8 10 1016.6 - 0.0 - - - - - - -
23/11:30am 17.1 SSE 9 12 1017.5 - 0.0 - - - - - - -
23/11:00am 17.1 SSE 7 10 1018.0 - 0.0 - - - - - - -
23/10:30am 16.9 SSE 9 12 1018.4 - 0.0 - - - - - - -
23/10:00am 16.8 SSE 9 12 1018.5 - 0.0 - - - - - - -
23/09:30am 16.4 SSE 9 12 1018.9 - 0.0 - - - - - - -
23/09:00am 15.6 SSE 8 11 1019.1 - 0.0 - - - - - - -
23/08:30am 13.3 SSE 4 7 1019.5 - 0.0 - - - - - - -
23/08:00am 11.8 ESE 4 5 1019.8 - 0.0 - - - - - - -
23/07:30am 10.8 SSE 4 5 1019.9 - 0.0 - - - - - - -
23/07:00am 10.4 SSE 4 6 1019.9 - 0.0 - - - - - - -
23/06:30am 10.4 SE 5 6 1019.9 - 0.0 - - - - - - -
23/06:00am 10.7 SSE 5 8 1020.0 - 0.0 - - - - - - -
23/05:30am 10.0 SSE 4 5 1020.0 - 0.0 - - - - - - -
23/05:00am 10.7 SE 5 8 1020.1 - 0.0 - - - - - - -
23/04:30am 10.3 SSE 5 6 1020.1 - 0.0 - - - - - - -
23/04:00am 10.8 SSE 5 7 1020.2 - 0.0 - - - - - - -
23/03:30am 11.1 SSE 6 9 1020.1 - 0.0 - - - - - - -
23/03:00am 11.2 SSE 6 7 1020.3 - 0.0 - - - - - - -
23/02:30am 11.6 SE 8 11 1020.7 - 0.0 - - - - - - -
23/02:00am 11.3 SE 6 8 1021.4 - 0.0 - - - - - - -

Other Formats:

Comma delimited format used in spreadsheet applications
http://www.bom.gov.au/fwo/IDS60701/IDS60701.95816.axf

JavaScript Object Notation format (JSON) in row-major order
http://www.bom.gov.au/fwo/IDS60701/IDS60701.95816.json